sensor_id;sensor_type;location;lat;lon;timestamp;P1;durP1;ratioP1;P2;durP2;ratioP2
70543;SDS011;58097;48.364;-1.224;2023-04-03T00:02:10;14.35;;;3.25;;
70543;SDS011;58097;48.364;-1.224;2023-04-03T00:04:35;12.88;;;4.22;;
70543;SDS011;58097;48.364;-1.224;2023-04-03T00:07:00;4.22;;;2.50;;
70543;SDS011;58097;48.364;-1.224;2023-04-03T00:09:26;19.73;;;3.00;;
70543;SDS011;58097;48.364;-1.224;2023-04-03T00:11:51;6.45;;;2.63;;
70543;SDS011;58097;48.364;-1.224;2023-04-03T00:14:16;11.30;;;3.50;;
70543;SDS011;58097;48.364;-1.224;2023-04-03T00:16:42;11.98;;;3.38;;
70543;SDS011;58097;48.364;-1.224;2023-04-03T00:19:07;6.22;;;2.17;;
70543;SDS011;58097;48.364;-1.224;2023-04-03T00:21:33;11.88;;;3.30;;
70543;SDS011;58097;48.364;-1.224;2023-04-03T00:23:58;16.40;;;4.00;;
70543;SDS011;58097;48.364;-1.224;2023-04-03T00:26:24;11.52;;;3.53;;
70543;SDS011;58097;48.364;-1.224;2023-04-03T00:28:49;9.10;;;3.17;;
70543;SDS011;58097;48.364;-1.224;2023-04-03T00:31:15;12.77;;;3.33;;
70543;SDS011;58097;48.364;-1.224;2023-04-03T00:33:41;10.30;;;2.85;;
70543;SDS011;58097;48.364;-1.224;2023-04-03T00:36:07;3.72;;;2.72;;
70543;SDS011;58097;48.364;-1.224;2023-04-03T00:38:34;9.68;;;3.22;;
70543;SDS011;58097;48.364;-1.224;2023-04-03T00:40:59;12.73;;;2.70;;
70543;SDS011;58097;48.364;-1.224;2023-04-03T00:43:25;13.15;;;3.50;;
70543;SDS011;58097;48.364;-1.224;2023-04-03T00:45:55;9.27;;;3.30;;
70543;SDS011;58097;48.364;-1.224;2023-04-03T00:48:22;12.30;;;3.38;;
70543;SDS011;58097;48.364;-1.224;2023-04-03T00:50:58;8.30;;;2.63;;
70543;SDS011;58097;48.364;-1.224;2023-04-03T00:53:28;14.95;;;2.65;;
70543;SDS011;58097;48.364;-1.224;2023-04-03T00:55:58;8.23;;;2.90;;
70543;SDS011;58097;48.364;-1.224;2023-04-03T00:58:32;8.68;;;2.78;;
70543;SDS011;58097;48.364;-1.224;2023-04-03T01:01:03;12.82;;;2.90;;
70543;SDS011;58097;48.364;-1.224;2023-04-03T01:03:31;13.23;;;2.83;;
70543;SDS011;58097;48.364;-1.224;2023-04-03T01:05:57;10.25;;;2.83;;
70543;SDS011;58097;48.364;-1.224;2023-04-03T01:08:23;9.00;;;2.35;;
70543;SDS011;58097;48.364;-1.224;2023-04-03T01:10:48;8.00;;;3.33;;
70543;SDS011;58097;48.364;-1.224;2023-04-03T01:13:33;18.20;;;2.63;;
70543;SDS011;58097;48.364;-1.224;2023-04-03T01:16:02;5.03;;;2.33;;
70543;SDS011;58097;48.364;-1.224;2023-04-03T01:18:28;7.05;;;3.30;;
70543;SDS011;58097;48.364;-1.224;2023-04-03T01:21:20;8.60;;;3.65;;
70543;SDS011;58097;48.364;-1.224;2023-04-03T01:24:14;6.70;;;2.65;;
70543;SDS011;58097;48.364;-1.224;2023-04-03T01:26:50;10.55;;;3.08;;
70543;SDS011;58097;48.364;-1.224;2023-04-03T01:29:15;15.48;;;2.78;;
70543;SDS011;58097;48.364;-1.224;2023-04-03T01:31:51;16.88;;;3.60;;
70543;SDS011;58097;48.364;-1.224;2023-04-03T01:34:16;8.43;;;2.90;;
70543;SDS011;58097;48.364;-1.224;2023-04-03T01:36:42;15.70;;;3.75;;
70543;SDS011;58097;48.364;-1.224;2023-04-03T01:39:08;13.98;;;3.58;;
70543;SDS011;58097;48.364;-1.224;2023-04-03T01:41:33;18.02;;;4.43;;
70543;SDS011;58097;48.364;-1.224;2023-04-03T01:43:59;11.77;;;2.55;;
70543;SDS011;58097;48.364;-1.224;2023-04-03T01:46:24;11.02;;;2.95;;
70543;SDS011;58097;48.364;-1.224;2023-04-03T01:48:50;8.48;;;2.95;;
70543;SDS011;58097;48.364;-1.224;2023-04-03T01:51:15;5.43;;;2.75;;
70543;SDS011;58097;48.364;-1.224;2023-04-03T01:53:41;13.30;;;3.53;;
70543;SDS011;58097;48.364;-1.224;2023-04-03T01:56:07;16.63;;;3.00;;
70543;SDS011;58097;48.364;-1.224;2023-04-03T01:58:33;10.63;;;2.63;;
70543;SDS011;58097;48.364;-1.224;2023-04-03T02:00:58;14.52;;;2.95;;
70543;SDS011;58097;48.364;-1.224;2023-04-03T02:03:24;10.68;;;2.95;;
70543;SDS011;58097;48.364;-1.224;2023-04-03T02:05:50;11.30;;;3.15;;
70543;SDS011;58097;48.364;-1.224;2023-04-03T02:08:15;13.30;;;3.65;;
70543;SDS011;58097;48.364;-1.224;2023-04-03T02:10:43;11.65;;;2.72;;
70543;SDS011;58097;48.364;-1.224;2023-04-03T02:13:08;6.10;;;2.78;;
70543;SDS011;58097;48.364;-1.224;2023-04-03T02:15:37;8.55;;;2.58;;
70543;SDS011;58097;48.364;-1.224;2023-04-03T02:18:03;5.75;;;3.33;;
70543;SDS011;58097;48.364;-1.224;2023-04-03T02:20:28;9.38;;;2.70;;
70543;SDS011;58097;48.364;-1.224;2023-04-03T02:22:54;7.68;;;2.92;;
70543;SDS011;58097;48.364;-1.224;2023-04-03T02:25:19;19.05;;;4.03;;
70543;SDS011;58097;48.364;-1.224;2023-04-03T02:27:45;6.38;;;2.42;;
70543;SDS011;58097;48.364;-1.224;2023-04-03T02:30:11;15.50;;;3.72;;
70543;SDS011;58097;48.364;-1.224;2023-04-03T02:32:36;11.43;;;3.22;;
70543;SDS011;58097;48.364;-1.224;2023-04-03T02:35:02;11.63;;;2.75;;
70543;SDS011;58097;48.364;-1.224;2023-04-03T02:37:27;13.60;;;4.57;;
70543;SDS011;58097;48.364;-1.224;2023-04-03T02:39:53;12.80;;;3.10;;
70543;SDS011;58097;48.364;-1.224;2023-04-03T02:42:18;10.60;;;2.90;;
70543;SDS011;58097;48.364;-1.224;2023-04-03T02:44:43;10.05;;;3.05;;
70543;SDS011;58097;48.364;-1.224;2023-04-03T02:47:09;7.47;;;3.38;;
70543;SDS011;58097;48.364;-1.224;2023-04-03T02:49:35;10.55;;;2.58;;
70543;SDS011;58097;48.364;-1.224;2023-04-03T02:52:00;10.23;;;2.90;;
70543;SDS011;58097;48.364;-1.224;2023-04-03T02:54:25;11.25;;;3.22;;
70543;SDS011;58097;48.364;-1.224;2023-04-03T02:56:53;6.65;;;3.13;;
70543;SDS011;58097;48.364;-1.224;2023-04-03T02:59:19;18.13;;;3.25;;
70543;SDS011;58097;48.364;-1.224;2023-04-03T03:01:45;10.38;;;3.65;;
70543;SDS011;58097;48.364;-1.224;2023-04-03T03:04:10;13.52;;;3.50;;
70543;SDS011;58097;48.364;-1.224;2023-04-03T03:06:36;9.85;;;2.97;;
70543;SDS011;58097;48.364;-1.224;2023-04-03T03:09:01;10.13;;;2.63;;
70543;SDS011;58097;48.364;-1.224;2023-04-03T03:11:28;17.83;;;3.08;;
70543;SDS011;58097;48.364;-1.224;2023-04-03T03:13:54;10.63;;;3.03;;
70543;SDS011;58097;48.364;-1.224;2023-04-03T03:16:20;8.60;;;3.53;;
70543;SDS011;58097;48.364;-1.224;2023-04-03T03:18:46;13.75;;;3.60;;
70543;SDS011;58097;48.364;-1.224;2023-04-03T03:21:11;4.30;;;2.55;;
70543;SDS011;58097;48.364;-1.224;2023-04-03T03:23:36;5.75;;;2.50;;
70543;SDS011;58097;48.364;-1.224;2023-04-03T03:26:03;11.93;;;3.28;;
70543;SDS011;58097;48.364;-1.224;2023-04-03T03:28:31;7.72;;;3.47;;
70543;SDS011;58097;48.364;-1.224;2023-04-03T03:30:57;7.88;;;3.30;;
70543;SDS011;58097;48.364;-1.224;2023-04-03T03:33:23;14.45;;;3.53;;
70543;SDS011;58097;48.364;-1.224;2023-04-03T03:35:50;11.73;;;4.05;;
70543;SDS011;58097;48.364;-1.224;2023-04-03T03:38:16;11.32;;;3.25;;
70543;SDS011;58097;48.364;-1.224;2023-04-03T03:40:41;14.43;;;3.72;;
70543;SDS011;58097;48.364;-1.224;2023-04-03T03:43:07;8.75;;;3.13;;
70543;SDS011;58097;48.364;-1.224;2023-04-03T03:45:32;8.50;;;4.13;;
70543;SDS011;58097;48.364;-1.224;2023-04-03T03:47:57;8.65;;;3.80;;
70543;SDS011;58097;48.364;-1.224;2023-04-03T03:50:23;12.18;;;4.15;;
70543;SDS011;58097;48.364;-1.224;2023-04-03T03:52:48;11.35;;;3.70;;
70543;SDS011;58097;48.364;-1.224;2023-04-03T03:55:14;4.78;;;3.33;;
70543;SDS011;58097;48.364;-1.224;2023-04-03T03:57:39;8.13;;;3.35;;
70543;SDS011;58097;48.364;-1.224;2023-04-03T04:00:05;14.48;;;4.13;;
70543;SDS011;58097;48.364;-1.224;2023-04-03T04:02:32;9.90;;;4.22;;
70543;SDS011;58097;48.364;-1.224;2023-04-03T04:04:57;11.40;;;4.13;;
70543;SDS011;58097;48.364;-1.224;2023-04-03T04:07:23;6.72;;;4.18;;
70543;SDS011;58097;48.364;-1.224;2023-04-03T04:09:48;16.38;;;4.35;;
70543;SDS011;58097;48.364;-1.224;2023-04-03T04:12:14;9.60;;;3.50;;
70543;SDS011;58097;48.364;-1.224;2023-04-03T04:14:39;5.32;;;3.65;;
70543;SDS011;58097;48.364;-1.224;2023-04-03T04:17:05;7.38;;;3.85;;
70543;SDS011;58097;48.364;-1.224;2023-04-03T04:19:30;10.90;;;3.95;;
70543;SDS011;58097;48.364;-1.224;2023-04-03T04:21:56;6.38;;;3.33;;
70543;SDS011;58097;48.364;-1.224;2023-04-03T04:24:21;7.03;;;3.67;;
70543;SDS011;58097;48.364;-1.224;2023-04-03T04:26:47;12.63;;;3.60;;
70543;SDS011;58097;48.364;-1.224;2023-04-03T04:29:13;5.63;;;3.85;;
70543;SDS011;58097;48.364;-1.224;2023-04-03T04:31:38;9.63;;;3.58;;
70543;SDS011;58097;48.364;-1.224;2023-04-03T04:34:04;12.10;;;4.35;;
70543;SDS011;58097;48.364;-1.224;2023-04-03T04:36:29;8.57;;;3.50;;
70543;SDS011;58097;48.364;-1.224;2023-04-03T04:38:55;10.13;;;3.90;;
70543;SDS011;58097;48.364;-1.224;2023-04-03T04:41:20;5.55;;;3.30;;
70543;SDS011;58097;48.364;-1.224;2023-04-03T04:43:47;10.23;;;3.92;;
70543;SDS011;58097;48.364;-1.224;2023-04-03T04:46:16;5.45;;;3.03;;
70543;SDS011;58097;48.364;-1.224;2023-04-03T04:48:42;9.95;;;4.35;;
70543;SDS011;58097;48.364;-1.224;2023-04-03T04:51:08;17.90;;;4.95;;
70543;SDS011;58097;48.364;-1.224;2023-04-03T04:53:34;6.43;;;3.85;;
70543;SDS011;58097;48.364;-1.224;2023-04-03T04:55:59;14.98;;;4.53;;
70543;SDS011;58097;48.364;-1.224;2023-04-03T04:58:25;7.28;;;5.50;;
70543;SDS011;58097;48.364;-1.224;2023-04-03T05:00:58;10.55;;;4.80;;
70543;SDS011;58097;48.364;-1.224;2023-04-03T05:03:24;11.32;;;4.53;;
70543;SDS011;58097;48.364;-1.224;2023-04-03T05:05:49;9.48;;;4.75;;
70543;SDS011;58097;48.364;-1.224;2023-04-03T05:08:15;16.77;;;5.72;;
70543;SDS011;58097;48.364;-1.224;2023-04-03T05:10:40;7.60;;;4.88;;
70543;SDS011;58097;48.364;-1.224;2023-04-03T05:13:07;8.98;;;4.38;;
70543;SDS011;58097;48.364;-1.224;2023-04-03T05:15:32;9.98;;;5.38;;
70543;SDS011;58097;48.364;-1.224;2023-04-03T05:17:57;8.10;;;4.60;;
70543;SDS011;58097;48.364;-1.224;2023-04-03T05:20:23;11.40;;;5.10;;
70543;SDS011;58097;48.364;-1.224;2023-04-03T05:22:48;11.55;;;5.40;;
70543;SDS011;58097;48.364;-1.224;2023-04-03T05:25:13;15.82;;;5.80;;
70543;SDS011;58097;48.364;-1.224;2023-04-03T05:27:39;8.07;;;4.65;;
70543;SDS011;58097;48.364;-1.224;2023-04-03T05:30:04;11.13;;;4.97;;
70543;SDS011;58097;48.364;-1.224;2023-04-03T05:32:30;10.82;;;5.22;;
70543;SDS011;58097;48.364;-1.224;2023-04-03T05:34:55;6.30;;;5.07;;
70543;SDS011;58097;48.364;-1.224;2023-04-03T05:37:21;11.48;;;6.18;;
70543;SDS011;58097;48.364;-1.224;2023-04-03T05:39:46;10.85;;;5.75;;
70543;SDS011;58097;48.364;-1.224;2023-04-03T05:42:12;13.48;;;6.80;;
70543;SDS011;58097;48.364;-1.224;2023-04-03T05:44:37;8.82;;;6.05;;
70543;SDS011;58097;48.364;-1.224;2023-04-03T05:47:03;12.10;;;6.75;;
70543;SDS011;58097;48.364;-1.224;2023-04-03T05:49:30;12.02;;;6.30;;
70543;SDS011;58097;48.364;-1.224;2023-04-03T05:51:55;14.20;;;7.10;;
70543;SDS011;58097;48.364;-1.224;2023-04-03T05:54:24;9.68;;;6.50;;
70543;SDS011;58097;48.364;-1.224;2023-04-03T05:56:51;10.57;;;6.65;;
70543;SDS011;58097;48.364;-1.224;2023-04-03T05:59:18;11.80;;;6.72;;
70543;SDS011;58097;48.364;-1.224;2023-04-03T06:01:44;11.27;;;7.13;;
70543;SDS011;58097;48.364;-1.224;2023-04-03T06:04:10;11.48;;;7.03;;
70543;SDS011;58097;48.364;-1.224;2023-04-03T06:06:43;16.52;;;7.75;;
70543;SDS011;58097;48.364;-1.224;2023-04-03T06:09:08;13.43;;;7.80;;
70543;SDS011;58097;48.364;-1.224;2023-04-03T06:11:34;12.90;;;8.50;;
70543;SDS011;58097;48.364;-1.224;2023-04-03T06:14:00;17.00;;;7.63;;
70543;SDS011;58097;48.364;-1.224;2023-04-03T06:16:25;12.25;;;8.85;;
70543;SDS011;58097;48.364;-1.224;2023-04-03T06:18:51;11.15;;;7.78;;
70543;SDS011;58097;48.364;-1.224;2023-04-03T06:21:16;16.33;;;8.73;;
70543;SDS011;58097;48.364;-1.224;2023-04-03T06:23:41;11.35;;;7.88;;
70543;SDS011;58097;48.364;-1.224;2023-04-03T06:26:07;15.90;;;8.48;;
70543;SDS011;58097;48.364;-1.224;2023-04-03T06:28:33;11.15;;;8.20;;
70543;SDS011;58097;48.364;-1.224;2023-04-03T06:30:58;14.48;;;8.38;;
70543;SDS011;58097;48.364;-1.224;2023-04-03T06:33:23;13.55;;;8.63;;
70543;SDS011;58097;48.364;-1.224;2023-04-03T06:35:49;11.73;;;7.82;;
70543;SDS011;58097;48.364;-1.224;2023-04-03T06:38:14;15.07;;;8.40;;
70543;SDS011;58097;48.364;-1.224;2023-04-03T06:40:40;15.18;;;8.77;;
70543;SDS011;58097;48.364;-1.224;2023-04-03T06:43:05;17.55;;;8.68;;
70543;SDS011;58097;48.364;-1.224;2023-04-03T06:45:30;11.77;;;8.18;;
70543;SDS011;58097;48.364;-1.224;2023-04-03T06:47:56;18.88;;;8.82;;
70543;SDS011;58097;48.364;-1.224;2023-04-03T06:50:21;14.98;;;9.25;;
70543;SDS011;58097;48.364;-1.224;2023-04-03T06:52:47;15.80;;;8.65;;
70543;SDS011;58097;48.364;-1.224;2023-04-03T06:55:12;14.32;;;10.10;;
70543;SDS011;58097;48.364;-1.224;2023-04-03T06:57:37;16.88;;;10.32;;
70543;SDS011;58097;48.364;-1.224;2023-04-03T07:00:04;22.25;;;11.23;;
70543;SDS011;58097;48.364;-1.224;2023-04-03T07:02:30;17.70;;;9.27;;
70543;SDS011;58097;48.364;-1.224;2023-04-03T07:04:56;19.92;;;11.38;;
70543;SDS011;58097;48.364;-1.224;2023-04-03T07:07:21;14.35;;;9.90;;
70543;SDS011;58097;48.364;-1.224;2023-04-03T07:09:47;15.40;;;9.55;;
70543;SDS011;58097;48.364;-1.224;2023-04-03T07:12:13;16.48;;;9.15;;
70543;SDS011;58097;48.364;-1.224;2023-04-03T07:14:38;12.68;;;8.77;;
70543;SDS011;58097;48.364;-1.224;2023-04-03T07:17:04;18.48;;;11.30;;
70543;SDS011;58097;48.364;-1.224;2023-04-03T07:19:30;18.52;;;10.32;;
70543;SDS011;58097;48.364;-1.224;2023-04-03T07:21:56;20.60;;;11.07;;
70543;SDS011;58097;48.364;-1.224;2023-04-03T07:24:21;16.73;;;9.32;;
70543;SDS011;58097;48.364;-1.224;2023-04-03T07:26:50;16.50;;;9.20;;
70543;SDS011;58097;48.364;-1.224;2023-04-03T07:29:17;23.88;;;9.82;;
70543;SDS011;58097;48.364;-1.224;2023-04-03T07:31:42;20.17;;;10.23;;
70543;SDS011;58097;48.364;-1.224;2023-04-03T07:34:09;14.80;;;9.40;;
70543;SDS011;58097;48.364;-1.224;2023-04-03T07:36:35;15.38;;;10.32;;
70543;SDS011;58097;48.364;-1.224;2023-04-03T07:39:01;16.77;;;9.50;;
70543;SDS011;58097;48.364;-1.224;2023-04-03T07:41:26;16.65;;;9.73;;
70543;SDS011;58097;48.364;-1.224;2023-04-03T07:43:52;16.90;;;9.57;;
70543;SDS011;58097;48.364;-1.224;2023-04-03T07:46:17;14.57;;;9.38;;
70543;SDS011;58097;48.364;-1.224;2023-04-03T07:48:43;14.02;;;9.48;;
70543;SDS011;58097;48.364;-1.224;2023-04-03T07:51:10;18.05;;;11.43;;
70543;SDS011;58097;48.364;-1.224;2023-04-03T07:53:35;16.65;;;11.70;;
70543;SDS011;58097;48.364;-1.224;2023-04-03T07:56:01;15.35;;;9.70;;
70543;SDS011;58097;48.364;-1.224;2023-04-03T07:58:27;15.98;;;9.57;;
70543;SDS011;58097;48.364;-1.224;2023-04-03T08:00:53;14.40;;;10.15;;
70543;SDS011;58097;48.364;-1.224;2023-04-03T08:03:18;16.00;;;10.80;;
70543;SDS011;58097;48.364;-1.224;2023-04-03T08:05:45;17.95;;;11.40;;
70543;SDS011;58097;48.364;-1.224;2023-04-03T08:08:13;16.40;;;11.18;;
70543;SDS011;58097;48.364;-1.224;2023-04-03T08:10:40;16.83;;;10.63;;
70543;SDS011;58097;48.364;-1.224;2023-04-03T08:13:07;15.27;;;11.00;;
70543;SDS011;58097;48.364;-1.224;2023-04-03T08:15:33;20.40;;;11.77;;
70543;SDS011;58097;48.364;-1.224;2023-04-03T08:17:59;20.65;;;11.10;;
70543;SDS011;58097;48.364;-1.224;2023-04-03T08:20:25;19.02;;;12.48;;
70543;SDS011;58097;48.364;-1.224;2023-04-03T08:22:51;17.73;;;10.95;;
70543;SDS011;58097;48.364;-1.224;2023-04-03T08:25:16;17.92;;;10.18;;
70543;SDS011;58097;48.364;-1.224;2023-04-03T08:27:42;19.65;;;12.98;;
70543;SDS011;58097;48.364;-1.224;2023-04-03T08:30:08;18.65;;;12.27;;
70543;SDS011;58097;48.364;-1.224;2023-04-03T08:32:34;18.50;;;11.77;;
70543;SDS011;58097;48.364;-1.224;2023-04-03T08:35:00;16.88;;;10.43;;
70543;SDS011;58097;48.364;-1.224;2023-04-03T08:37:26;20.40;;;11.88;;
70543;SDS011;58097;48.364;-1.224;2023-04-03T08:39:51;19.08;;;12.05;;
70543;SDS011;58097;48.364;-1.224;2023-04-03T08:50:17;15.93;;;11.98;;
70543;SDS011;58097;48.364;-1.224;2023-04-03T08:52:49;15.55;;;10.75;;
70543;SDS011;58097;48.364;-1.224;2023-04-03T09:03:31;16.10;;;10.35;;
70543;SDS011;58097;48.364;-1.224;2023-04-03T09:11:47;15.25;;;10.98;;
70543;SDS011;58097;48.364;-1.224;2023-04-03T09:14:02;15.95;;;9.18;;
70543;SDS011;58097;48.364;-1.224;2023-04-03T09:19:18;14.40;;;10.13;;
70543;SDS011;58097;48.364;-1.224;2023-04-03T09:22:00;14.30;;;9.43;;
70543;SDS011;58097;48.364;-1.224;2023-04-03T09:27:42;15.80;;;8.90;;
70543;SDS011;58097;48.364;-1.224;2023-04-03T09:30:18;13.38;;;9.27;;
70543;SDS011;58097;48.364;-1.224;2023-04-03T09:32:47;13.10;;;9.20;;
70543;SDS011;58097;48.364;-1.224;2023-04-03T09:37:49;8.95;;;6.53;;
70543;SDS011;58097;48.364;-1.224;2023-04-03T09:42:54;11.85;;;8.85;;
70543;SDS011;58097;48.364;-1.224;2023-04-03T09:45:32;11.63;;;8.38;;
70543;SDS011;58097;48.364;-1.224;2023-04-03T09:48:07;15.85;;;9.07;;
70543;SDS011;58097;48.364;-1.224;2023-04-03T09:53:25;12.00;;;7.68;;
70543;SDS011;58097;48.364;-1.224;2023-04-03T09:55:53;12.60;;;8.63;;
70543;SDS011;58097;48.364;-1.224;2023-04-03T09:58:29;13.18;;;8.20;;
70543;SDS011;58097;48.364;-1.224;2023-04-03T10:00:58;9.32;;;7.38;;
70543;SDS011;58097;48.364;-1.224;2023-04-03T10:03:30;11.50;;;8.13;;
70543;SDS011;58097;48.364;-1.224;2023-04-03T10:05:57;11.38;;;7.85;;
70543;SDS011;58097;48.364;-1.224;2023-04-03T10:11:10;14.65;;;8.73;;
70543;SDS011;58097;48.364;-1.224;2023-04-03T10:13:54;15.27;;;9.48;;
70543;SDS011;58097;48.364;-1.224;2023-04-03T10:16:36;11.73;;;7.85;;
70543;SDS011;58097;48.364;-1.224;2023-04-03T10:21:55;12.35;;;7.88;;
70543;SDS011;58097;48.364;-1.224;2023-04-03T10:27:24;10.70;;;8.50;;
70543;SDS011;58097;48.364;-1.224;2023-04-03T10:30:03;11.63;;;7.47;;
70543;SDS011;58097;48.364;-1.224;2023-04-03T10:32:42;15.23;;;9.30;;
70543;SDS011;58097;48.364;-1.224;2023-04-03T10:35:17;15.85;;;9.23;;
70543;SDS011;58097;48.364;-1.224;2023-04-03T10:38:00;18.35;;;8.07;;
70543;SDS011;58097;48.364;-1.224;2023-04-03T10:43:04;10.75;;;8.13;;
70543;SDS011;58097;48.364;-1.224;2023-04-03T10:56:38;13.27;;;7.90;;
70543;SDS011;58097;48.364;-1.224;2023-04-03T11:03:44;11.75;;;8.15;;
70543;SDS011;58097;48.364;-1.224;2023-04-03T11:06:12;13.30;;;8.95;;
70543;SDS011;58097;48.364;-1.224;2023-04-03T11:11:29;12.05;;;7.97;;
70543;SDS011;58097;48.364;-1.224;2023-04-03T11:14:00;11.85;;;8.07;;
70543;SDS011;58097;48.364;-1.224;2023-04-03T11:16:31;10.38;;;7.70;;
70543;SDS011;58097;48.364;-1.224;2023-04-03T11:24:33;9.88;;;7.15;;
70543;SDS011;58097;48.364;-1.224;2023-04-03T11:27:03;10.73;;;8.20;;
70543;SDS011;58097;48.364;-1.224;2023-04-03T11:29:36;8.73;;;7.63;;
70543;SDS011;58097;48.364;-1.224;2023-04-03T11:34:35;10.02;;;7.47;;
70543;SDS011;58097;48.364;-1.224;2023-04-03T11:42:41;12.90;;;7.70;;
70543;SDS011;58097;48.364;-1.224;2023-04-03T11:50:53;10.52;;;7.45;;
70543;SDS011;58097;48.364;-1.224;2023-04-03T11:53:26;11.90;;;7.95;;
70543;SDS011;58097;48.364;-1.224;2023-04-03T11:55:56;9.00;;;7.60;;
70543;SDS011;58097;48.364;-1.224;2023-04-03T12:05:56;8.93;;;7.95;;
70543;SDS011;58097;48.364;-1.224;2023-04-03T12:18:57;9.70;;;7.72;;
70543;SDS011;58097;48.364;-1.224;2023-04-03T12:29:14;8.40;;;7.45;;
70543;SDS011;58097;48.364;-1.224;2023-04-03T12:40:14;12.93;;;7.57;;
70543;SDS011;58097;48.364;-1.224;2023-04-03T12:45:37;8.73;;;7.65;;
70543;SDS011;58097;48.364;-1.224;2023-04-03T12:48:12;10.52;;;6.88;;
70543;SDS011;58097;48.364;-1.224;2023-04-03T12:50:41;8.82;;;6.30;;
70543;SDS011;58097;48.364;-1.224;2023-04-03T12:53:14;9.60;;;7.53;;
70543;SDS011;58097;48.364;-1.224;2023-04-03T12:55:46;8.20;;;6.80;;
70543;SDS011;58097;48.364;-1.224;2023-04-03T12:58:21;7.97;;;6.88;;
70543;SDS011;58097;48.364;-1.224;2023-04-03T13:01:04;8.27;;;7.03;;
70543;SDS011;58097;48.364;-1.224;2023-04-03T13:03:37;9.13;;;6.65;;
70543;SDS011;58097;48.364;-1.224;2023-04-03T13:06:05;9.20;;;6.07;;
70543;SDS011;58097;48.364;-1.224;2023-04-03T13:08:30;6.57;;;5.88;;
70543;SDS011;58097;48.364;-1.224;2023-04-03T13:11:07;8.68;;;6.45;;
70543;SDS011;58097;48.364;-1.224;2023-04-03T13:13:36;10.55;;;5.57;;
70543;SDS011;58097;48.364;-1.224;2023-04-03T13:16:10;8.50;;;6.53;;
70543;SDS011;58097;48.364;-1.224;2023-04-03T13:18:37;7.47;;;6.15;;
70543;SDS011;58097;48.364;-1.224;2023-04-03T13:21:22;6.15;;;5.45;;
70543;SDS011;58097;48.364;-1.224;2023-04-03T13:23:51;8.80;;;6.40;;
70543;SDS011;58097;48.364;-1.224;2023-04-03T13:26:20;9.60;;;6.10;;
70543;SDS011;58097;48.364;-1.224;2023-04-03T13:28:48;8.70;;;6.00;;
70543;SDS011;58097;48.364;-1.224;2023-04-03T13:36:38;7.65;;;5.93;;
70543;SDS011;58097;48.364;-1.224;2023-04-03T13:39:17;9.15;;;7.30;;
70543;SDS011;58097;48.364;-1.224;2023-04-03T13:41:48;7.50;;;5.97;;
70543;SDS011;58097;48.364;-1.224;2023-04-03T13:46:50;8.90;;;7.35;;
70543;SDS011;58097;48.364;-1.224;2023-04-03T13:52:01;8.30;;;6.40;;
70543;SDS011;58097;48.364;-1.224;2023-04-03T13:54:52;8.32;;;6.80;;
70543;SDS011;58097;48.364;-1.224;2023-04-03T13:57:20;10.60;;;6.68;;
70543;SDS011;58097;48.364;-1.224;2023-04-03T13:59:45;8.27;;;5.88;;
70543;SDS011;58097;48.364;-1.224;2023-04-03T14:02:16;8.02;;;6.05;;
70543;SDS011;58097;48.364;-1.224;2023-04-03T14:07:13;6.88;;;5.97;;
70543;SDS011;58097;48.364;-1.224;2023-04-03T14:09:41;8.30;;;6.28;;
70543;SDS011;58097;48.364;-1.224;2023-04-03T14:12:08;8.35;;;6.18;;
70543;SDS011;58097;48.364;-1.224;2023-04-03T14:14:39;7.65;;;5.75;;
70543;SDS011;58097;48.364;-1.224;2023-04-03T14:17:15;6.97;;;5.25;;
70543;SDS011;58097;48.364;-1.224;2023-04-03T14:19:43;6.38;;;5.18;;
70543;SDS011;58097;48.364;-1.224;2023-04-03T14:22:20;6.82;;;4.90;;
70543;SDS011;58097;48.364;-1.224;2023-04-03T14:24:50;7.18;;;5.30;;
70543;SDS011;58097;48.364;-1.224;2023-04-03T14:27:19;12.45;;;4.72;;
70543;SDS011;58097;48.364;-1.224;2023-04-03T14:30:01;7.00;;;4.72;;
70543;SDS011;58097;48.364;-1.224;2023-04-03T14:32:28;5.85;;;4.70;;
70543;SDS011;58097;48.364;-1.224;2023-04-03T14:34:54;4.50;;;3.72;;
70543;SDS011;58097;48.364;-1.224;2023-04-03T14:37:23;5.18;;;4.00;;
70543;SDS011;58097;48.364;-1.224;2023-04-03T14:39:52;5.25;;;4.40;;
70543;SDS011;58097;48.364;-1.224;2023-04-03T14:42:20;5.82;;;3.97;;
70543;SDS011;58097;48.364;-1.224;2023-04-03T14:44:48;5.90;;;4.40;;
70543;SDS011;58097;48.364;-1.224;2023-04-03T14:47:15;4.95;;;4.45;;
70543;SDS011;58097;48.364;-1.224;2023-04-03T14:49:45;6.70;;;4.88;;
70543;SDS011;58097;48.364;-1.224;2023-04-03T14:52:44;5.53;;;4.45;;
70543;SDS011;58097;48.364;-1.224;2023-04-03T14:55:03;5.22;;;4.03;;
70543;SDS011;58097;48.364;-1.224;2023-04-03T14:57:31;4.85;;;4.20;;
70543;SDS011;58097;48.364;-1.224;2023-04-03T14:59:57;6.78;;;4.75;;
70543;SDS011;58097;48.364;-1.224;2023-04-03T15:05:03;5.97;;;4.60;;
70543;SDS011;58097;48.364;-1.224;2023-04-03T15:07:32;5.97;;;5.07;;
70543;SDS011;58097;48.364;-1.224;2023-04-03T15:10:06;9.50;;;5.25;;
70543;SDS011;58097;48.364;-1.224;2023-04-03T15:12:41;6.78;;;4.55;;
70543;SDS011;58097;48.364;-1.224;2023-04-03T15:15:07;8.48;;;5.70;;
70543;SDS011;58097;48.364;-1.224;2023-04-03T15:17:33;6.57;;;4.82;;
70543;SDS011;58097;48.364;-1.224;2023-04-03T15:19:59;9.13;;;5.40;;
70543;SDS011;58097;48.364;-1.224;2023-04-03T15:22:25;5.57;;;4.38;;
70543;SDS011;58097;48.364;-1.224;2023-04-03T15:24:51;6.72;;;6.03;;
70543;SDS011;58097;48.364;-1.224;2023-04-03T15:27:16;6.50;;;4.88;;
70543;SDS011;58097;48.364;-1.224;2023-04-03T15:29:42;8.38;;;5.53;;
70543;SDS011;58097;48.364;-1.224;2023-04-03T15:32:09;7.15;;;5.72;;
70543;SDS011;58097;48.364;-1.224;2023-04-03T15:34:35;9.38;;;6.45;;
70543;SDS011;58097;48.364;-1.224;2023-04-03T15:37:00;6.47;;;5.47;;
70543;SDS011;58097;48.364;-1.224;2023-04-03T15:39:26;7.30;;;6.03;;
70543;SDS011;58097;48.364;-1.224;2023-04-03T15:41:52;11.23;;;6.05;;
70543;SDS011;58097;48.364;-1.224;2023-04-03T15:44:19;8.48;;;5.60;;
70543;SDS011;58097;48.364;-1.224;2023-04-03T15:46:48;7.70;;;5.57;;
70543;SDS011;58097;48.364;-1.224;2023-04-03T15:49:16;7.47;;;6.05;;
70543;SDS011;58097;48.364;-1.224;2023-04-03T15:51:42;7.97;;;6.75;;
70543;SDS011;58097;48.364;-1.224;2023-04-03T15:54:08;8.38;;;6.82;;
70543;SDS011;58097;48.364;-1.224;2023-04-03T15:56:33;10.63;;;7.40;;
70543;SDS011;58097;48.364;-1.224;2023-04-03T15:58:58;11.45;;;7.05;;
70543;SDS011;58097;48.364;-1.224;2023-04-03T16:01:24;10.05;;;7.88;;
70543;SDS011;58097;48.364;-1.224;2023-04-03T16:03:49;11.00;;;7.10;;
70543;SDS011;58097;48.364;-1.224;2023-04-03T16:06:16;9.95;;;6.70;;
70543;SDS011;58097;48.364;-1.224;2023-04-03T16:08:43;12.05;;;7.35;;
70543;SDS011;58097;48.364;-1.224;2023-04-03T16:11:09;12.55;;;7.35;;
70543;SDS011;58097;48.364;-1.224;2023-04-03T16:13:36;10.90;;;8.18;;
70543;SDS011;58097;48.364;-1.224;2023-04-03T16:16:01;11.45;;;8.23;;
70543;SDS011;58097;48.364;-1.224;2023-04-03T16:18:29;11.65;;;7.53;;
70543;SDS011;58097;48.364;-1.224;2023-04-03T16:20:55;10.38;;;7.93;;
70543;SDS011;58097;48.364;-1.224;2023-04-03T16:23:20;11.27;;;8.50;;
70543;SDS011;58097;48.364;-1.224;2023-04-03T16:25:47;13.95;;;8.30;;
70543;SDS011;58097;48.364;-1.224;2023-04-03T16:28:13;9.35;;;7.18;;
70543;SDS011;58097;48.364;-1.224;2023-04-03T16:30:41;12.18;;;8.27;;
70543;SDS011;58097;48.364;-1.224;2023-04-03T16:33:08;9.82;;;7.60;;
70543;SDS011;58097;48.364;-1.224;2023-04-03T16:35:35;10.02;;;7.80;;
70543;SDS011;58097;48.364;-1.224;2023-04-03T16:38:00;11.02;;;8.52;;
70543;SDS011;58097;48.364;-1.224;2023-04-03T16:40:25;11.00;;;8.65;;
70543;SDS011;58097;48.364;-1.224;2023-04-03T16:42:51;13.05;;;8.60;;
70543;SDS011;58097;48.364;-1.224;2023-04-03T16:45:16;10.23;;;8.57;;
70543;SDS011;58097;48.364;-1.224;2023-04-03T16:47:41;11.82;;;8.52;;